createdAt,value
2022-12-25T00:00:01.799Z,0.003
2022-12-25T00:05:01.780Z,0
2022-12-25T00:10:01.781Z,0.004
2022-12-25T00:15:01.802Z,0.006
2022-12-25T00:20:01.808Z,0.139
2022-12-25T00:25:01.994Z,0.15
2022-12-25T00:30:02.001Z,0.108
2022-12-25T00:35:01.935Z,0.1
2022-12-25T00:40:01.962Z,0.098
2022-12-25T00:45:01.892Z,0.101
2022-12-25T00:50:01.957Z,0.114
2022-12-25T00:55:01.998Z,0.044
2022-12-25T01:00:01.867Z,0
2022-12-25T01:05:01.782Z,0
2022-12-25T01:10:01.794Z,0
2022-12-25T01:15:01.938Z,0
2022-12-25T01:20:01.925Z,0
2022-12-25T01:25:01.783Z,0
2022-12-25T01:30:01.832Z,0
2022-12-25T01:35:01.812Z,0.058
2022-12-25T01:40:01.817Z,0.109
2022-12-25T01:45:01.899Z,0.136
2022-12-25T01:50:01.835Z,0.163
2022-12-25T01:55:01.880Z,0.168
2022-12-25T02:00:02.479Z,0.146
2022-12-25T02:05:01.856Z,0.112
2022-12-25T02:10:01.909Z,0.115
2022-12-25T02:15:05.602Z,0.033
2022-12-25T02:20:02.305Z,0
2022-12-25T02:25:01.860Z,0
2022-12-25T02:30:01.860Z,0
2022-12-25T02:35:02.129Z,0.123
2022-12-25T02:40:01.824Z,0.169
2022-12-25T02:45:02.096Z,0.161
2022-12-25T02:50:01.928Z,0.117
2022-12-25T02:55:01.957Z,0.11800000000000001
2022-12-25T03:00:01.901Z,0.11900000000000001
2022-12-25T03:05:02.079Z,0.117
2022-12-25T03:10:02.078Z,0.12
2022-12-25T03:15:02.120Z,0.036000000000000004
2022-12-25T03:20:02.087Z,0.002
2022-12-25T03:25:02.307Z,0
2022-12-25T03:30:02.029Z,0
2022-12-25T03:35:02.018Z,0
2022-12-25T03:40:02.001Z,0
2022-12-25T03:45:01.935Z,0
2022-12-25T03:50:01.984Z,0.045
2022-12-25T03:55:02.030Z,0.12
2022-12-25T04:00:01.942Z,0.121
2022-12-25T04:05:01.950Z,0.127
2022-12-25T04:10:01.984Z,0.17
2022-12-25T04:15:01.998Z,0.166
2022-12-25T04:20:02.153Z,0.158
2022-12-25T04:25:02.004Z,0.105
2022-12-25T04:30:01.993Z,0.107
2022-12-25T04:35:01.956Z,0.107
2022-12-25T04:40:02.129Z,0.106
2022-12-25T04:45:01.974Z,0.048
2022-12-25T04:50:02.031Z,0
2022-12-25T04:55:02.058Z,0
2022-12-25T05:00:02.052Z,0
2022-12-25T05:05:01.993Z,0.068
2022-12-25T05:10:01.955Z,0.134
2022-12-25T05:15:02.028Z,0.117
2022-12-25T05:20:02.067Z,0.11900000000000001
2022-12-25T05:25:02.002Z,0.12
2022-12-25T05:30:02.212Z,0.114
2022-12-25T05:35:01.993Z,0.106
2022-12-25T05:40:02.222Z,0.11900000000000001
2022-12-25T05:45:02.229Z,0.157
2022-12-25T05:50:02.236Z,0.156
2022-12-25T05:55:02.245Z,0.138
2022-12-25T06:00:02.272Z,0.043000000000000003
2022-12-25T06:05:02.211Z,0
2022-12-25T06:10:02.096Z,0
2022-12-25T06:15:02.072Z,0
2022-12-25T06:20:02.152Z,0
2022-12-25T06:25:02.264Z,0
2022-12-25T06:30:02.168Z,0.038
2022-12-25T06:35:02.065Z,0.155
2022-12-25T06:40:02.040Z,0.161
2022-12-25T06:45:02.069Z,0.117
2022-12-25T06:50:02.096Z,0.117
2022-12-25T06:55:02.131Z,0.125
2022-12-25T07:00:02.231Z,0.123
2022-12-25T07:05:02.087Z,0.124
2022-12-25T07:10:02.091Z,0.11900000000000001
2022-12-25T07:15:02.077Z,0.132
2022-12-25T07:20:02.109Z,0.17
2022-12-25T07:25:02.123Z,0.17
2022-12-25T07:30:02.101Z,0.154
2022-12-25T07:35:02.107Z,0.108
2022-12-25T07:40:02.096Z,0.044
2022-12-25T07:45:02.157Z,0
2022-12-25T07:50:02.181Z,0
2022-12-25T07:55:02.995Z,0.008
2022-12-25T08:00:02.382Z,0.128
2022-12-25T08:05:02.315Z,0.178
2022-12-25T08:10:02.268Z,5.446
2022-12-25T08:15:02.510Z,29.895
2022-12-25T08:20:02.275Z,30.189
2022-12-25T08:25:02.254Z,38.214
2022-12-25T08:30:02.186Z,30.544
2022-12-25T08:35:02.250Z,35.889
2022-12-25T08:40:02.202Z,44.747
2022-12-25T08:45:02.195Z,46.848
2022-12-25T08:50:02.205Z,57.397
2022-12-25T08:55:02.724Z,60.005
2022-12-25T09:00:02.286Z,50.725
2022-12-25T09:05:02.308Z,50.925000000000004
2022-12-25T09:10:02.212Z,46.055
2022-12-25T09:15:02.229Z,28.897000000000002
2022-12-25T09:20:02.233Z,34.036
2022-12-25T09:25:02.192Z,27.602
2022-12-25T09:30:02.189Z,30.274
2022-12-25T09:35:02.276Z,37.642
2022-12-25T09:40:02.221Z,32.008
2022-12-25T09:45:02.216Z,38.57
2022-12-25T09:50:02.484Z,42.086
2022-12-25T09:55:02.496Z,48.072
2022-12-25T10:00:02.416Z,55.943
2022-12-25T10:05:02.394Z,64.264
2022-12-25T10:10:02.429Z,107.02
2022-12-25T10:15:02.385Z,107.437
2022-12-25T10:20:02.452Z,82.66
2022-12-25T10:25:02.427Z,68.001
2022-12-25T10:30:02.367Z,58.426
2022-12-25T10:35:02.388Z,47.18
2022-12-25T10:40:02.259Z,41.661
2022-12-25T10:45:02.397Z,43.421
2022-12-25T10:50:02.365Z,68.651
2022-12-25T10:55:02.301Z,72.882
2022-12-25T11:00:02.314Z,79.339
2022-12-25T11:05:02.336Z,84.96900000000001
2022-12-25T11:10:05.061Z,134.925
2022-12-25T11:15:02.345Z,121.421
2022-12-25T11:20:02.389Z,118.312
2022-12-25T11:25:02.386Z,155.988
2022-12-25T11:30:02.305Z,282.517
2022-12-25T11:35:02.385Z,444.615
2022-12-25T11:40:02.386Z,420.055
2022-12-25T11:45:02.310Z,298.868
2022-12-25T11:50:02.455Z,225.324
2022-12-25T11:55:02.644Z,135.754
2022-12-25T12:00:02.420Z,143.065
2022-12-25T12:05:02.456Z,103.899
2022-12-25T12:10:02.448Z,73.4
2022-12-25T12:15:02.342Z,54.868
2022-12-25T12:20:02.480Z,67.031
2022-12-25T12:25:02.391Z,76.994
2022-12-25T12:30:02.572Z,87.2
2022-12-25T12:35:02.620Z,58.095
2022-12-25T12:40:02.499Z,42.984
2022-12-25T12:45:02.554Z,65.925
2022-12-25T12:50:02.547Z,106.114
2022-12-25T12:55:02.575Z,162.482
2022-12-25T13:00:08.842Z,175.065
2022-12-25T13:05:02.433Z,193.219
2022-12-25T13:15:02.676Z,172.603
2022-12-25T13:20:02.444Z,148.168
2022-12-25T13:25:02.481Z,80.154
2022-12-25T13:30:02.406Z,67.267
2022-12-25T13:35:02.419Z,75.72200000000001
2022-12-25T13:40:02.524Z,43.607
2022-12-25T13:45:02.429Z,32.274
2022-12-25T13:50:02.467Z,32.535000000000004
2022-12-25T13:55:02.591Z,17.744
2022-12-25T14:00:02.497Z,0.171
2022-12-25T14:05:02.426Z,0.082
2022-12-25T14:10:02.460Z,0.081
2022-12-25T14:15:02.520Z,0.108
2022-12-25T14:20:07.736Z,0.40900000000000003
2022-12-25T14:25:02.473Z,0.41600000000000004
2022-12-25T14:30:02.602Z,0.449
2022-12-25T14:35:02.615Z,0.445
2022-12-25T14:40:02.606Z,0.523
2022-12-25T14:45:02.578Z,0.541
2022-12-25T14:50:02.545Z,0.23700000000000002
2022-12-25T14:55:02.629Z,0.24
2022-12-25T15:00:02.527Z,0.254
2022-12-25T15:05:02.503Z,0.273
2022-12-25T15:10:46.827Z,0.301
2022-12-25T15:15:02.628Z,0.299
2022-12-25T15:20:02.663Z,0.28400000000000003
2022-12-25T15:25:02.798Z,0.249
2022-12-25T15:30:10.582Z,0.262
2022-12-25T15:35:02.541Z,0.055
2022-12-25T15:40:02.724Z,0
2022-12-25T15:45:02.561Z,0
2022-12-25T15:50:02.611Z,0.016
2022-12-25T15:55:02.968Z,0.004
2022-12-25T16:00:02.868Z,0.005
2022-12-25T16:05:06.991Z,0.11800000000000001
2022-12-25T16:10:02.743Z,0.063
2022-12-25T16:15:02.769Z,0.05
2022-12-25T16:20:02.727Z,0.17300000000000001
2022-12-25T16:25:03.609Z,0.156
2022-12-25T16:30:02.744Z,0.222
2022-12-25T16:35:02.603Z,0.094
2022-12-25T16:40:02.624Z,0.077
2022-12-25T16:45:02.564Z,0.111
2022-12-25T16:50:02.679Z,0.11900000000000001
2022-12-25T16:55:02.581Z,0.128
2022-12-25T17:00:02.587Z,0.458
2022-12-25T17:05:02.700Z,0.07100000000000001
2022-12-25T17:10:02.659Z,0.041
2022-12-25T17:15:02.591Z,0.007
2022-12-25T17:20:02.684Z,0.016
2022-12-25T17:25:02.631Z,0.008
2022-12-25T17:30:02.661Z,0.018000000000000002
2022-12-25T17:35:02.667Z,0.05
2022-12-25T17:40:02.593Z,0.109
2022-12-25T17:45:02.803Z,0.061
2022-12-25T17:50:02.792Z,0.082
2022-12-25T17:55:02.752Z,0.06
2022-12-25T18:00:02.820Z,0.082
2022-12-25T18:05:02.703Z,0.059000000000000004
2022-12-25T18:10:02.669Z,0.092
2022-12-25T18:15:02.885Z,0.097
2022-12-25T18:20:02.826Z,0.187
2022-12-25T18:25:02.712Z,0.25
2022-12-25T18:30:02.705Z,0.267
2022-12-25T18:35:02.678Z,0.27
2022-12-25T18:40:02.663Z,0.155
2022-12-25T18:45:02.695Z,0.128
2022-12-25T18:50:02.706Z,0.106
2022-12-25T18:55:02.681Z,0.012
2022-12-25T19:00:03.122Z,0.025
2022-12-25T19:05:02.867Z,0.013000000000000001
2022-12-25T19:10:02.871Z,0.03
2022-12-25T19:15:00.739Z,0.011
2022-12-25T19:20:00.790Z,0.124
2022-12-25T19:25:00.807Z,0.092
2022-12-25T19:30:00.686Z,0.106
2022-12-25T19:35:00.702Z,0.10300000000000001
2022-12-25T19:40:00.620Z,0.088
2022-12-25T19:45:00.703Z,0.14
2022-12-25T19:50:02.795Z,0.132
2022-12-25T19:55:00.720Z,0.121
2022-12-25T20:00:00.705Z,0.148
2022-12-25T20:05:00.644Z,0.151
2022-12-25T20:10:00.696Z,0.127
2022-12-25T20:15:00.638Z,0.096
2022-12-25T20:20:00.684Z,0.091
2022-12-25T20:25:00.752Z,0.089
2022-12-25T20:30:00.701Z,0.088
2022-12-25T20:35:00.728Z,0.093
2022-12-25T20:40:00.659Z,0.089
2022-12-25T20:45:00.979Z,0.126
2022-12-25T20:50:01.056Z,0
2022-12-25T20:55:00.906Z,0
2022-12-25T21:00:00.831Z,0
2022-12-25T21:05:00.914Z,0
2022-12-25T21:10:00.744Z,0.048
2022-12-25T21:15:00.742Z,0.11
2022-12-25T21:20:00.772Z,0.11
2022-12-25T21:25:00.805Z,0.107
2022-12-25T21:30:14.687Z,0.152
2022-12-25T21:35:00.725Z,0.166
2022-12-25T21:40:00.763Z,0.168
2022-12-25T21:45:00.711Z,0.126
2022-12-25T21:50:00.733Z,0.12
2022-12-25T21:55:00.727Z,0.12
2022-12-25T22:00:00.800Z,0.117
2022-12-25T22:05:00.720Z,0.121
2022-12-25T22:10:00.742Z,0.122
2022-12-25T22:15:01.240Z,0.133
2022-12-25T22:20:00.964Z,0.137
2022-12-25T22:25:00.994Z,0.132
2022-12-25T22:30:00.977Z,0.116
2022-12-25T22:35:00.949Z,0.10300000000000001
2022-12-25T22:40:00.776Z,0.07
2022-12-25T22:45:00.832Z,0.001
2022-12-25T22:50:00.826Z,0.011
2022-12-25T22:55:00.867Z,0.001
2022-12-25T23:00:00.828Z,0.014
2022-12-25T23:05:00.816Z,0.003
2022-12-25T23:10:00.816Z,0.167
2022-12-25T23:15:00.870Z,0.163
2022-12-25T23:20:01.006Z,0.11900000000000001
2022-12-25T23:25:00.903Z,0.108
2022-12-25T23:30:00.794Z,0.105
2022-12-25T23:35:00.863Z,0.112
2022-12-25T23:40:00.812Z,0.106
2022-12-25T23:45:01.215Z,0.112
2022-12-25T23:50:01.112Z,0.155
2022-12-25T23:55:01.058Z,0.169
